createdAt,value
2022-10-11T00:00:59.034Z,100646.52
2022-10-11T00:02:01.021Z,100646.53
2022-10-11T00:03:08.369Z,100642.23
2022-10-11T00:04:12.352Z,100644.80
2022-10-11T00:05:14.290Z,100647.47
2022-10-11T00:06:16.850Z,100644.84
2022-10-11T00:07:19.612Z,100642.18
2022-10-11T00:08:21.917Z,100643.95
2022-10-11T00:09:24.290Z,100642.20
2022-10-11T00:10:26.301Z,100639.64
2022-10-11T00:11:28.076Z,100633.67
2022-10-11T00:12:29.916Z,100633.67
2022-10-11T00:13:31.855Z,100634.41
2022-10-11T00:14:34.469Z,100634.41
2022-10-11T00:15:39.151Z,100634.42
2022-10-11T00:16:40.957Z,100637.83
2022-10-11T00:17:43.216Z,100630.88
2022-10-11T00:18:45.105Z,100633.51
2022-10-11T00:19:46.751Z,100639.64
2022-10-11T00:20:49.154Z,100633.66
2022-10-11T00:21:51.079Z,100629.36
2022-10-11T00:22:52.869Z,100629.36
2022-10-11T00:23:54.626Z,100637.06
2022-10-11T00:24:56.244Z,100631.09
2022-10-11T00:26:00.166Z,100632.02
2022-10-11T00:27:02.140Z,100633.72
2022-10-11T00:28:04.519Z,100625.94
2022-10-11T00:29:06.794Z,100629.31
2022-10-11T00:30:10.395Z,100627.57
2022-10-11T00:31:14.537Z,100624.97
2022-10-11T00:32:16.751Z,100618.92
2022-10-11T00:33:18.684Z,100625.85
2022-10-11T00:34:20.406Z,100622.47
2022-10-11T00:35:22.254Z,100624.16
2022-10-11T00:36:25.906Z,100617.33
2022-10-11T00:37:27.665Z,100627.63
2022-10-11T00:38:31.817Z,100618.16
2022-10-11T00:39:33.485Z,100621.66
2022-10-11T00:40:35.450Z,100626.13
2022-10-11T00:41:37.669Z,100627.84
2022-10-11T00:42:39.957Z,100615.80
2022-10-11T00:43:42.160Z,100611.42
2022-10-11T00:44:46.704Z,100610.64
2022-10-11T00:46:01.797Z,100613.24
2022-10-11T00:48:20.534Z,100610.54
2022-10-11T00:49:31.864Z,100616.58
2022-10-11T00:50:35.806Z,100609.72
2022-10-11T00:51:45.059Z,100612.33
2022-10-11T00:52:59.479Z,100607.20
2022-10-11T00:54:02.870Z,100610.62
2022-10-11T00:55:08.374Z,100606.28
2022-10-11T00:56:14.430Z,100608.00
2022-10-11T00:57:19.717Z,100609.69
2022-10-11T00:58:23.057Z,100610.58
2022-10-11T00:59:28.554Z,100608.00
2022-10-11T01:00:30.505Z,100608.02
2022-10-11T01:01:32.478Z,100615.67
2022-10-11T01:02:34.924Z,100612.25
2022-10-11T01:03:38.628Z,100614.88
2022-10-11T01:04:41.241Z,100608.80
2022-10-11T01:05:45.028Z,100610.52
2022-10-11T01:06:48.034Z,100606.24
2022-10-11T01:07:50.364Z,100611.48
2022-10-11T01:08:52.920Z,100614.14
2022-10-11T01:09:54.716Z,100612.45
2022-10-11T01:10:57.247Z,100607.20
2022-10-11T01:12:02.338Z,100603.75
2022-10-11T01:13:27.767Z,100609.77
2022-10-11T01:14:56.880Z,100608.91
2022-10-11T01:16:02.882Z,100612.23
2022-10-11T01:17:27.114Z,100606.14
2022-10-11T01:18:32.615Z,100607.15
2022-10-11T01:20:10.314Z,100610.64
2022-10-11T01:21:15.808Z,100609.72
2022-10-11T01:22:55.106Z,100616.64
2022-10-11T01:24:24.767Z,100614.08
2022-10-11T01:25:32.764Z,100613.20
2022-10-11T01:26:38.386Z,100615.80
2022-10-11T01:27:46.642Z,100612.30
2022-10-11T01:29:11.913Z,100614.94
2022-10-11T01:30:20.932Z,100624.39
2022-10-11T01:31:26.439Z,100618.44
2022-10-11T01:32:56.224Z,100624.39
2022-10-11T01:34:20.202Z,100615.75
2022-10-11T01:35:26.189Z,100612.37
2022-10-11T01:36:34.964Z,100617.53
2022-10-11T01:37:40.431Z,100619.30
2022-10-11T01:38:49.071Z,100618.44
2022-10-11T01:40:06.711Z,100618.44
2022-10-11T01:41:18.265Z,100615.04
2022-10-11T01:42:21.369Z,100616.78
2022-10-11T01:43:27.365Z,100621.24
2022-10-11T01:44:31.188Z,100609.22
2022-10-11T01:45:34.584Z,100612.70
2022-10-11T01:46:36.726Z,100609.22
2022-10-11T01:47:38.610Z,100608.48
2022-10-11T01:48:52.908Z,100618.81
2022-10-11T01:49:58.048Z,100618.81
2022-10-11T01:51:02.892Z,100618.00
2022-10-11T01:52:06.500Z,100616.33
2022-10-11T01:53:17.761Z,100606.84
2022-10-11T01:55:09.086Z,100621.45
2022-10-11T01:56:22.905Z,100616.34
2022-10-11T01:57:40.683Z,100620.61
2022-10-11T01:58:55.947Z,100619.73
2022-10-11T02:00:20.723Z,100619.78
2022-10-11T02:02:00.153Z,100612.94
2022-10-11T02:03:20.960Z,100618.89
2022-10-11T02:04:32.347Z,100617.25
2022-10-11T02:05:53.128Z,100625.82
2022-10-11T02:07:01.683Z,100621.56
2022-10-11T02:08:10.257Z,100616.41
2022-10-11T02:09:15.753Z,100616.41
2022-10-11T02:10:24.383Z,100620.72
2022-10-11T02:11:32.298Z,100621.56
2022-10-11T02:12:37.813Z,100625.83
2022-10-11T02:13:46.313Z,100622.36
2022-10-11T02:14:51.000Z,100618.98
2022-10-11T02:15:55.820Z,100630.12
2022-10-11T02:17:01.395Z,100630.11
2022-10-11T02:18:06.941Z,100625.00
2022-10-11T02:19:11.702Z,100628.47
2022-10-11T02:20:17.347Z,100628.51
2022-10-11T02:21:22.841Z,100630.23
2022-10-11T02:22:28.732Z,100628.47
2022-10-11T02:23:34.203Z,100625.08
2022-10-11T02:24:39.718Z,100624.25
2022-10-11T02:25:44.541Z,100620.86
2022-10-11T02:26:49.522Z,100618.20
2022-10-11T02:27:55.034Z,100630.16
2022-10-11T02:29:00.186Z,100625.08
2022-10-11T02:30:05.228Z,100618.20
2022-10-11T02:31:09.476Z,100627.63
2022-10-11T02:32:14.275Z,100629.30
2022-10-11T02:33:20.245Z,100642.09
2022-10-11T02:34:25.123Z,100637.70
2022-10-11T02:35:30.355Z,100630.91
2022-10-11T02:36:39.061Z,100634.33
2022-10-11T02:37:59.935Z,100631.70
2022-10-11T02:39:06.351Z,100637.80
2022-10-11T02:40:17.734Z,100638.70
2022-10-11T02:41:28.681Z,100634.41
2022-10-11T02:42:37.789Z,100633.51
2022-10-11T02:43:43.276Z,100640.38
2022-10-11T02:44:48.781Z,100635.27
2022-10-11T02:45:54.247Z,100639.56
2022-10-11T02:46:56.370Z,100636.11
2022-10-11T02:47:58.764Z,100637.77
2022-10-11T02:49:01.791Z,100635.14
2022-10-11T02:50:05.906Z,100632.56
2022-10-11T02:51:13.653Z,100630.91
2022-10-11T02:52:15.522Z,100626.72
2022-10-11T02:53:17.270Z,100633.55
2022-10-11T02:54:19.832Z,100631.83
2022-10-11T02:55:21.719Z,100631.03
2022-10-11T02:56:23.743Z,100637.82
2022-10-11T02:57:25.555Z,100636.98
2022-10-11T02:58:27.323Z,100635.19
2022-10-11T02:59:29.033Z,100630.01
2022-10-11T03:00:30.987Z,100636.03
2022-10-11T03:01:32.656Z,100646.38
2022-10-11T03:02:34.594Z,100637.77
2022-10-11T03:03:36.554Z,100643.85
2022-10-11T03:04:38.293Z,100636.98
2022-10-11T03:05:40.944Z,100643.86
2022-10-11T03:06:43.816Z,100644.75
2022-10-11T03:07:45.555Z,100644.75
2022-10-11T03:08:47.335Z,100635.30
2022-10-11T03:09:49.954Z,100638.80
2022-10-11T03:10:51.885Z,100638.81
2022-10-11T03:11:53.500Z,100637.06
2022-10-11T03:12:55.237Z,100637.09
2022-10-11T03:13:57.047Z,100641.44
2022-10-11T03:14:59.894Z,100641.44
2022-10-11T03:16:03.547Z,100637.13
2022-10-11T03:17:31.120Z,100632.01
2022-10-11T03:18:09.327Z,100642.30
2022-10-11T03:19:12.910Z,100629.44
2022-10-11T03:20:15.071Z,100629.44
2022-10-11T03:21:17.187Z,100626.89
2022-10-11T03:22:19.082Z,100626.89
2022-10-11T03:23:20.759Z,100634.64
2022-10-11T03:24:22.653Z,100634.64
2022-10-11T03:25:24.790Z,100626.94
2022-10-11T03:26:26.656Z,100638.08
2022-10-11T03:27:28.762Z,100632.06
2022-10-11T03:28:30.734Z,100630.37
2022-10-11T03:29:32.753Z,100632.95
2022-10-11T03:30:34.464Z,100624.31
2022-10-11T03:31:36.413Z,100625.17
2022-10-11T03:32:39.490Z,100625.14
2022-10-11T03:33:42.366Z,100627.73
2022-10-11T03:34:44.202Z,100637.19
2022-10-11T03:35:47.853Z,100628.63
2022-10-11T03:36:50.760Z,100632.06
2022-10-11T03:37:52.537Z,100629.46
2022-10-11T03:38:54.140Z,100629.46
2022-10-11T03:39:55.946Z,100635.44
2022-10-11T03:40:57.677Z,100630.29
2022-10-11T03:41:59.878Z,100632.03
2022-10-11T03:43:01.706Z,100640.65
2022-10-11T03:44:03.819Z,100628.60
2022-10-11T03:45:07.418Z,100632.89
2022-10-11T03:46:09.608Z,100623.47
2022-10-11T03:47:11.461Z,100623.48
2022-10-11T03:48:13.610Z,100626.07
2022-10-11T03:49:15.412Z,100630.34
2022-10-11T03:50:17.355Z,100631.19
2022-10-11T03:51:19.118Z,100632.97
2022-10-11T03:52:21.582Z,100635.54
2022-10-11T03:53:23.417Z,100637.28
2022-10-11T03:54:25.715Z,100637.28
2022-10-11T03:55:27.798Z,100639.87
2022-10-11T03:56:29.744Z,100633.87
2022-10-11T03:57:31.371Z,100633.87
2022-10-11T03:58:33.173Z,100638.99
2022-10-11T03:59:34.898Z,100637.30
2022-10-11T04:00:36.797Z,100637.28
2022-10-11T04:01:38.549Z,100637.30
2022-10-11T04:02:40.535Z,100639.87
2022-10-11T04:03:42.295Z,100639.89
2022-10-11T04:04:43.912Z,100639.89
2022-10-11T04:05:45.757Z,100639.91
2022-10-11T04:06:47.682Z,100636.45
2022-10-11T04:07:49.511Z,100640.70
2022-10-11T04:08:51.127Z,100643.23
2022-10-11T04:09:53.799Z,100640.67
2022-10-11T04:10:55.743Z,100638.92
2022-10-11T04:11:58.173Z,100643.25
2022-10-11T04:13:00.037Z,100650.98
2022-10-11T04:14:01.887Z,100647.58
2022-10-11T04:15:05.157Z,100646.70
2022-10-11T04:16:08.514Z,100638.97
2022-10-11T04:17:11.710Z,100638.98
2022-10-11T04:18:13.666Z,100640.69
2022-10-11T04:19:15.989Z,100640.70
2022-10-11T04:20:18.052Z,100644.10
2022-10-11T04:21:20.188Z,100640.67
2022-10-11T04:22:22.284Z,100638.05
2022-10-11T04:23:24.157Z,100636.34
2022-10-11T04:24:26.047Z,100638.08
2022-10-11T04:25:28.019Z,100640.63
2022-10-11T04:26:30.117Z,100640.63
2022-10-11T04:27:32.984Z,100640.65
2022-10-11T04:28:36.032Z,100642.35
2022-10-11T04:29:38.095Z,100652.63
2022-10-11T04:30:39.916Z,100642.39
2022-10-11T04:31:42.628Z,100647.54
2022-10-11T04:32:44.541Z,100647.55
2022-10-11T04:33:46.974Z,100644.98
2022-10-11T04:34:48.844Z,100642.41
2022-10-11T04:35:55.673Z,100654.35
2022-10-11T04:36:57.605Z,100654.30
2022-10-11T04:37:59.247Z,100644.87
2022-10-11T04:39:01.518Z,100652.58
2022-10-11T04:40:06.161Z,100642.31
2022-10-11T04:41:09.799Z,100643.16
2022-10-11T04:42:13.023Z,100649.11
2022-10-11T04:43:14.966Z,100648.27
2022-10-11T04:44:18.118Z,100647.39
2022-10-11T04:45:21.066Z,100640.56
2022-10-11T04:46:24.046Z,100646.59
2022-10-11T04:47:26.184Z,100645.76
2022-10-11T04:48:28.502Z,100646.57
2022-10-11T04:49:30.289Z,100646.54
2022-10-11T04:50:32.134Z,100636.30
2022-10-11T04:51:33.740Z,100636.30
2022-10-11T04:52:35.514Z,100643.99
2022-10-11T04:53:37.236Z,100643.97
2022-10-11T04:54:39.758Z,100644.82
2022-10-11T04:55:41.468Z,100644.85
2022-10-11T04:56:45.763Z,100637.94
2022-10-11T04:57:47.663Z,100647.39
2022-10-11T04:58:49.659Z,100650.83
2022-10-11T04:59:51.535Z,100651.69
2022-10-11T05:00:55.245Z,100646.50
2022-10-11T05:01:57.207Z,100643.93
2022-10-11T05:02:59.162Z,100652.56
2022-10-11T05:04:00.918Z,100649.09
2022-10-11T05:05:03.874Z,100653.39
2022-10-11T05:06:06.363Z,100647.36
2022-10-11T05:07:08.317Z,100652.50
2022-10-11T05:08:11.019Z,100650.77
2022-10-11T05:09:12.831Z,100656.73
2022-10-11T05:10:15.130Z,100650.73
2022-10-11T05:11:17.626Z,100657.60
2022-10-11T05:12:19.928Z,100664.47
2022-10-11T05:13:23.566Z,100658.44
2022-10-11T05:14:25.539Z,100663.58
2022-10-11T05:15:27.397Z,100667.05
2022-10-11T05:16:29.381Z,100655.84
2022-10-11T05:17:31.326Z,100659.28
2022-10-11T05:18:33.701Z,100657.56
2022-10-11T05:19:35.761Z,100654.09
2022-10-11T05:20:37.630Z,100646.36
2022-10-11T05:21:39.493Z,100656.64
2022-10-11T05:22:41.210Z,100655.80
2022-10-11T05:23:44.064Z,100652.33
2022-10-11T05:24:45.810Z,100656.58
2022-10-11T05:25:47.452Z,100653.97
2022-10-11T05:26:49.784Z,100653.95
2022-10-11T05:27:51.839Z,100650.48
2022-10-11T05:28:55.010Z,100647.87
2022-10-11T05:29:57.971Z,100655.56
2022-10-11T05:30:59.916Z,100649.56
2022-10-11T05:32:02.798Z,100651.25
2022-10-11T05:33:04.663Z,100652.94
2022-10-11T05:34:07.002Z,100657.16
2022-10-11T05:35:09.551Z,100658.93
2022-10-11T05:36:12.259Z,100656.33
2022-10-11T05:37:14.043Z,100660.63
2022-10-11T05:38:16.641Z,100654.63
2022-10-11T05:39:19.440Z,100665.80
2022-10-11T05:40:21.378Z,100657.19
2022-10-11T05:41:23.133Z,100653.74
2022-10-11T05:42:25.516Z,100657.19
2022-10-11T05:43:28.417Z,100652.81
2022-10-11T05:44:30.142Z,100653.66
2022-10-11T05:45:37.648Z,100657.09
2022-10-11T05:46:39.763Z,100661.41
2022-10-11T05:47:41.460Z,100652.78
2022-10-11T05:48:44.269Z,100657.88
2022-10-11T05:49:47.154Z,100656.16
2022-10-11T05:50:49.679Z,100657.01
2022-10-11T05:51:51.421Z,100656.13
2022-10-11T05:52:53.040Z,100656.07
2022-10-11T05:53:54.690Z,100662.06
2022-10-11T05:54:57.549Z,100656.95
2022-10-11T05:55:59.631Z,100657.73
2022-10-11T05:57:02.452Z,100656.00
2022-10-11T05:58:05.522Z,100646.58
2022-10-11T05:59:08.300Z,100651.68
2022-10-11T06:00:11.546Z,100648.22
2022-10-11T06:02:34.848Z,100652.40
2022-10-11T06:03:36.979Z,100645.61
2022-10-11T06:04:39.553Z,100652.42
2022-10-11T06:05:42.471Z,100654.97
2022-10-11T06:06:44.900Z,100648.95
2022-10-11T06:07:46.653Z,100648.02
2022-10-11T06:08:48.852Z,100654.78
2022-10-11T06:09:52.515Z,100660.83
2022-10-11T06:10:54.442Z,100657.41
2022-10-11T06:11:56.764Z,100654.78
2022-10-11T06:12:58.517Z,100656.47
2022-10-11T06:14:00.358Z,100661.64
2022-10-11T06:15:05.102Z,100661.64
2022-10-11T06:16:08.414Z,100654.69
2022-10-11T06:17:10.733Z,100648.59
2022-10-11T06:18:12.481Z,100651.09
2022-10-11T06:19:14.196Z,100659.58
2022-10-11T06:20:16.683Z,100661.30
2022-10-11T06:21:18.354Z,100656.89
2022-10-11T06:22:21.079Z,100657.80
2022-10-11T06:23:22.958Z,100654.37
2022-10-11T06:24:24.591Z,100653.47
2022-10-11T06:25:26.299Z,100653.47
2022-10-11T06:26:29.159Z,100657.80
2022-10-11T06:27:31.428Z,100652.59
2022-10-11T06:28:35.405Z,100654.37
2022-10-11T06:29:38.515Z,100656.05
2022-10-11T06:30:40.367Z,100656.00
2022-10-11T06:31:43.227Z,100659.38
2022-10-11T06:32:45.521Z,100655.94
2022-10-11T06:33:47.711Z,100660.27
2022-10-11T06:34:50.089Z,100664.56
2022-10-11T06:36:00.067Z,100667.09
2022-10-11T06:37:02.612Z,100667.05
2022-10-11T06:38:05.819Z,100668.67
2022-10-11T06:39:07.708Z,100662.55
2022-10-11T06:40:10.958Z,100666.75
2022-10-11T06:41:16.463Z,100670.06
2022-10-11T06:42:18.170Z,100669.19
2022-10-11T06:43:20.312Z,100666.66
2022-10-11T06:44:21.994Z,100672.64
2022-10-11T06:45:23.628Z,100663.98
2022-10-11T06:46:27.146Z,100667.35
2022-10-11T06:47:29.645Z,100663.83
2022-10-11T06:48:32.102Z,100666.35
2022-10-11T06:49:34.587Z,100668.06
2022-10-11T06:50:58.719Z,100664.58
2022-10-11T06:51:41.943Z,100668.88
2022-10-11T06:52:43.824Z,100664.54
2022-10-11T06:53:55.595Z,100667.87
2022-10-11T06:54:58.140Z,100664.41
2022-10-11T06:56:10.591Z,100668.61
2022-10-11T06:57:12.547Z,100670.39
2022-10-11T06:58:14.186Z,100651.30
2022-10-11T06:59:16.618Z,100651.30
2022-10-11T07:00:18.725Z,100658.08
2022-10-11T07:01:21.634Z,100665.81
2022-10-11T07:02:23.568Z,100676.02
2022-10-11T07:03:25.706Z,100673.30
2022-10-11T07:04:27.481Z,100676.58
2022-10-11T07:05:29.645Z,100673.25
2022-10-11T07:06:32.608Z,100667.31
2022-10-11T07:07:34.384Z,100666.33
2022-10-11T07:08:38.125Z,100671.20
2022-10-11T07:09:40.637Z,100662.52
2022-10-11T07:10:42.430Z,100668.34
2022-10-11T07:11:44.298Z,100669.18
2022-10-11T07:12:46.136Z,100659.53
2022-10-11T07:15:00.314Z,100660.04
2022-10-11T07:16:08.992Z,100664.80
2022-10-11T07:17:12.207Z,100664.04
2022-10-11T07:18:13.973Z,100667.42
2022-10-11T07:19:15.813Z,100667.19
2022-10-11T07:20:18.300Z,100667.19
2022-10-11T07:21:20.366Z,100666.98
2022-10-11T07:22:22.071Z,100666.94
2022-10-11T07:23:24.076Z,100672.03
2022-10-11T07:24:26.092Z,100670.36
2022-10-11T07:25:27.759Z,100671.95
2022-10-11T07:26:35.296Z,100660.62
2022-10-11T07:27:33.613Z,100659.91
2022-10-11T07:28:36.668Z,100660.62
2022-10-11T07:29:38.808Z,100665.50
2022-10-11T07:30:42.626Z,100657.49
2022-10-11T07:31:44.701Z,100662.68
2022-10-11T07:32:46.402Z,100657.34
2022-10-11T07:33:48.227Z,100657.40
2022-10-11T07:34:49.910Z,100659.06
2022-10-11T07:35:56.472Z,100659.89
2022-10-11T07:36:58.407Z,100660.66
2022-10-11T07:38:00.389Z,100660.53
2022-10-11T07:39:05.670Z,100656.77
2022-10-11T07:40:10.315Z,100656.56
2022-10-11T07:41:12.779Z,100656.41
2022-10-11T07:42:15.141Z,100652.88
2022-10-11T07:43:17.113Z,100647.34
2022-10-11T07:44:18.796Z,100640.64
2022-10-11T07:45:21.183Z,100642.50
2022-10-11T07:46:23.044Z,100643.38
2022-10-11T07:47:24.663Z,100642.61
2022-10-11T07:48:26.400Z,100640.70
2022-10-11T07:49:28.802Z,100643.38
2022-10-11T07:50:30.901Z,100637.17
2022-10-11T07:51:32.731Z,100635.20
2022-10-11T07:52:34.759Z,100632.74
2022-10-11T07:53:45.597Z,100637.84
2022-10-11T07:54:51.575Z,100640.27
2022-10-11T07:55:53.331Z,100635.98
2022-10-11T07:56:55.234Z,100633.42
2022-10-11T07:57:57.923Z,100633.42
2022-10-11T07:59:01.194Z,100640.33
2022-10-11T08:00:04.277Z,100633.36
2022-10-11T08:01:09.750Z,100628.85
2022-10-11T08:02:12.837Z,100632.22
2022-10-11T08:03:14.791Z,100627.69
2022-10-11T08:04:16.994Z,100627.14
2022-10-11T08:05:19.464Z,100627.14
2022-10-11T08:06:24.260Z,100634.98
2022-10-11T08:07:26.209Z,100636.69
2022-10-11T08:08:29.648Z,100630.56
2022-10-11T08:09:31.768Z,100631.34
2022-10-11T08:10:38.853Z,100627.75
2022-10-11T08:11:40.718Z,100630.34
2022-10-11T08:12:42.515Z,100632.05
2022-10-11T08:13:45.495Z,100630.28
2022-10-11T08:14:47.430Z,100626.08
2022-10-11T08:15:50.192Z,100626.98
2022-10-11T08:16:52.641Z,100632.95
2022-10-11T08:17:54.579Z,100632.95
2022-10-11T08:18:57.205Z,100632.95
2022-10-11T08:19:59.447Z,100622.50
2022-10-11T08:21:10.117Z,100632.84
2022-10-11T08:22:11.961Z,100626.70
2022-10-11T08:23:15.178Z,100613.81
2022-10-11T08:24:18.107Z,100620.79
2022-10-11T08:25:20.411Z,100623.32
2022-10-11T08:26:22.493Z,100621.49
2022-10-11T08:27:26.088Z,100619.73
2022-10-11T08:28:29.141Z,100622.27
2022-10-11T08:29:32.111Z,100621.33
2022-10-11T08:30:35.662Z,100622.10
2022-10-11T08:31:37.965Z,100617.75
2022-10-11T08:32:39.930Z,100627.97
2022-10-11T08:33:43.475Z,100617.75
2022-10-11T08:34:45.420Z,100613.42
2022-10-11T08:35:48.848Z,100620.16
2022-10-11T08:36:53.088Z,100623.59
2022-10-11T08:37:54.928Z,100628.56
2022-10-11T08:38:58.231Z,100619.23
2022-10-11T08:40:00.990Z,100618.45
2022-10-11T08:41:05.169Z,100622.70
2022-10-11T08:42:17.255Z,100619.98
2022-10-11T08:43:47.419Z,100615.56
2022-10-11T08:46:01.359Z,100609.32
2022-10-11T08:48:36.574Z,100608.00
2022-10-11T08:49:39.332Z,100613.37
2022-10-11T08:50:45.460Z,100612.31
2022-10-11T08:51:54.008Z,100615.63
2022-10-11T08:53:14.824Z,100608.72
2022-10-11T08:54:23.906Z,100600.20
2022-10-11T08:55:38.717Z,100602.86
2022-10-11T08:56:42.242Z,100603.63
2022-10-11T08:57:48.310Z,100603.52
2022-10-11T08:58:57.962Z,100600.84
2022-10-11T09:00:03.575Z,100596.42
2022-10-11T09:01:08.807Z,100596.42
2022-10-11T09:02:20.315Z,100596.35
2022-10-11T09:03:31.934Z,100596.25
2022-10-11T09:04:34.297Z,100595.14
2022-10-11T09:05:51.966Z,100598.53
2022-10-11T09:07:05.161Z,100598.51
2022-10-11T09:08:19.545Z,100599.29
2022-10-11T09:09:34.339Z,100600.81
2022-10-11T09:11:07.408Z,100597.13
2022-10-11T09:12:39.808Z,100602.09
2022-10-11T09:15:31.369Z,100596.48
2022-10-11T09:16:58.697Z,100591.67
2022-10-11T09:18:38.001Z,100599.10
2022-10-11T09:20:12.499Z,100596.28
2022-10-11T09:21:17.985Z,100597.64
2022-10-11T09:22:41.279Z,100596.97
2022-10-11T09:24:22.242Z,100591.77
2022-10-11T09:25:35.933Z,100596.77
2022-10-11T09:26:53.261Z,100597.64
2022-10-11T09:28:15.803Z,100586.28
2022-10-11T09:29:30.686Z,100595.68
2022-10-11T09:30:36.748Z,100584.23
2022-10-11T09:31:38.670Z,100583.23
2022-10-11T09:32:44.246Z,100590.14
2022-10-11T09:33:48.272Z,100585.89
2022-10-11T09:36:28.368Z,100585.40
2022-10-11T09:37:40.492Z,100586.50
2022-10-11T09:39:06.449Z,100583.06
2022-10-11T09:40:16.461Z,100576.17
2022-10-11T09:41:25.385Z,100581.09
2022-10-11T09:42:28.370Z,100580.08
2022-10-11T09:43:31.723Z,100577.30
2022-10-11T09:44:51.865Z,100584.03
2022-10-11T09:45:53.682Z,100577.66
2022-10-11T09:46:57.128Z,100581.07
2022-10-11T09:48:01.562Z,100586.07
2022-10-11T09:49:10.684Z,100573.20
2022-10-11T09:50:21.143Z,100578.17
2022-10-11T09:51:26.460Z,100579.81
2022-10-11T09:52:28.949Z,100579.91
2022-10-11T09:53:52.496Z,100579.06
2022-10-11T09:54:57.518Z,100578.05
2022-10-11T09:56:04.242Z,100575.13
2022-10-11T09:57:09.335Z,100569.02
2022-10-11T09:58:33.597Z,100569.92
2022-10-11T09:59:36.408Z,100564.80
2022-10-11T10:00:38.633Z,100568.22
2022-10-11T10:01:40.459Z,100578.76
2022-10-11T10:02:48.349Z,100567.31
2022-10-11T10:03:53.849Z,100563.69
2022-10-11T10:05:12.243Z,100560.93
2022-10-11T10:06:24.399Z,100566.72
2022-10-11T10:07:27.904Z,100569.52
2022-10-11T10:08:29.841Z,100568.03
2022-10-11T10:09:31.841Z,100569.51
2022-10-11T10:10:43.071Z,100566.36
2022-10-11T10:11:45.608Z,100565.09
2022-10-11T10:12:51.479Z,100553.63
2022-10-11T10:13:55.675Z,100558.41
2022-10-11T10:15:16.547Z,100555.13
2022-10-11T10:16:33.353Z,100554.97
2022-10-11T10:17:35.565Z,100555.80
2022-10-11T10:18:42.931Z,100551.33
2022-10-11T10:19:51.665Z,100546.74
2022-10-11T10:20:56.325Z,100553.53
2022-10-11T10:21:59.537Z,100544.66
2022-10-11T10:24:39.460Z,100538.59
2022-10-11T10:25:43.671Z,100545.81
2022-10-11T10:27:12.264Z,100550.80
2022-10-11T10:28:24.175Z,100551.03
2022-10-11T10:29:26.166Z,100548.36
2022-10-11T10:30:34.495Z,100545.68
2022-10-11T10:32:08.832Z,100544.84
2022-10-11T10:33:54.758Z,100540.11
2022-10-11T10:35:12.337Z,100535.55
2022-10-11T10:36:21.331Z,100535.55
2022-10-11T10:37:33.004Z,100537.88
2022-10-11T10:38:42.334Z,100538.20
2022-10-11T10:39:47.828Z,100532.22
2022-10-11T10:40:53.258Z,100534.83
2022-10-11T10:41:56.360Z,100528.84
2022-10-11T10:42:59.561Z,100535.77
2022-10-11T10:44:02.518Z,100539.69
2022-10-11T10:45:12.134Z,100527.69
2022-10-11T10:46:28.999Z,100528.70
2022-10-11T10:48:06.079Z,100529.27
2022-10-11T10:50:25.276Z,100529.75
2022-10-11T10:51:52.639Z,100531.21
2022-10-11T10:53:20.997Z,100525.20
2022-10-11T10:54:42.871Z,100523.25
2022-10-11T10:55:54.207Z,100534.66
2022-10-11T10:57:00.814Z,100524.64
2022-10-11T10:58:35.233Z,100532.70
2022-10-11T10:59:47.203Z,100523.73
2022-10-11T11:00:54.723Z,100525.50
2022-10-11T11:02:34.957Z,100519.59
2022-10-11T11:03:28.979Z,100519.38
2022-10-11T11:04:33.520Z,100519.24
2022-10-11T11:05:43.025Z,100515.84
2022-10-11T11:07:09.921Z,100517.50
2022-10-11T11:08:50.185Z,100510.69
2022-10-11T11:10:05.352Z,100513.01
2022-10-11T11:11:11.287Z,100503.95
2022-10-11T11:12:38.174Z,100505.54
2022-10-11T11:13:51.339Z,100509.28
2022-10-11T11:15:16.085Z,100502.79
2022-10-11T11:18:04.945Z,100502.83
2022-10-11T11:19:25.401Z,100508.45
2022-10-11T11:20:46.881Z,100499.72
2022-10-11T11:22:07.898Z,100508.45
2022-10-11T11:23:22.632Z,100501.34
2022-10-11T11:24:49.850Z,100501.02
2022-10-11T11:26:12.518Z,100495.54
2022-10-11T11:27:42.563Z,100494.70
2022-10-11T11:29:21.765Z,100490.06
2022-10-11T11:30:34.070Z,100494.27
2022-10-11T11:33:07.587Z,100489.69
2022-10-11T11:34:28.491Z,100489.69
2022-10-11T11:35:50.860Z,100486.55
2022-10-11T11:37:05.634Z,100490.52
2022-10-11T11:38:19.846Z,100499.30
2022-10-11T11:39:41.647Z,100489.05
2022-10-11T11:40:47.217Z,100494.27
2022-10-11T11:42:06.713Z,100491.46
2022-10-11T11:43:24.581Z,100489.76
2022-10-11T11:44:33.099Z,100486.80
2022-10-11T11:45:57.063Z,100486.42
2022-10-11T11:47:14.760Z,100485.43
2022-10-11T11:48:23.039Z,100482.18
2022-10-11T11:49:31.718Z,100481.58
2022-10-11T11:50:40.162Z,100479.34
2022-10-11T11:51:44.608Z,100481.55
2022-10-11T11:52:50.037Z,100480.09
2022-10-11T11:54:02.287Z,100482.30
2022-10-11T11:55:37.592Z,100472.76
2022-10-11T11:57:04.643Z,100481.52
2022-10-11T11:58:32.220Z,100476.90
2022-10-11T11:59:40.650Z,100473.77
2022-10-11T12:01:10.423Z,100487.63
2022-10-11T12:02:35.227Z,100475.62
2022-10-11T12:03:41.889Z,100475.05
2022-10-11T12:04:47.452Z,100476.17
2022-10-11T12:05:53.387Z,100476.88
2022-10-11T12:07:16.335Z,100466.55
2022-10-11T12:08:28.387Z,100467.39
2022-10-11T12:09:32.533Z,100468.09
2022-10-11T12:10:56.922Z,100470.70
2022-10-11T12:12:03.179Z,100460.40
2022-10-11T12:13:21.978Z,100466.98
2022-10-11T12:14:39.480Z,100468.23
2022-10-11T12:16:00.094Z,100460.26
2022-10-11T12:17:21.516Z,100472.73
2022-10-11T12:18:25.773Z,100463.95
2022-10-11T12:19:28.894Z,100459.20
2022-10-11T12:20:35.814Z,100459.20
2022-10-11T12:21:39.965Z,100452.58
2022-10-11T12:23:00.663Z,100465.96
2022-10-11T12:24:20.756Z,100457.19
2022-10-11T12:25:29.912Z,100458.44
2022-10-11T12:26:35.533Z,100468.28
2022-10-11T12:27:43.879Z,100469.22
2022-10-11T12:29:01.492Z,100455.49
2022-10-11T12:30:06.221Z,100463.36
2022-10-11T12:31:24.540Z,100466.44
2022-10-11T12:32:30.125Z,100455.97
2022-10-11T12:33:36.121Z,100459.05
2022-10-11T12:34:43.707Z,100458.95
2022-10-11T12:36:05.611Z,100459.22
2022-10-11T12:37:21.759Z,100457.48
2022-10-11T12:38:38.116Z,100463.53
2022-10-11T12:39:43.750Z,100459.27
2022-10-11T12:40:49.866Z,100457.42
2022-10-11T12:41:56.484Z,100462.34
2022-10-11T12:43:17.454Z,100466.53
2022-10-11T12:44:25.426Z,100457.20
2022-10-11T12:45:33.534Z,100461.20
2022-10-11T12:46:43.194Z,100462.88
2022-10-11T12:48:12.690Z,100465.22
2022-10-11T12:49:33.350Z,100461.95
2022-10-11T12:51:00.752Z,100466.69
2022-10-11T12:52:06.382Z,100463.13
2022-10-11T12:53:27.649Z,100460.76
2022-10-11T12:55:08.465Z,100462.42
2022-10-11T12:56:26.585Z,100455.98
2022-10-11T12:57:48.400Z,100464.13
2022-10-11T12:58:53.979Z,100454.34
2022-10-11T13:00:00.546Z,100452.69